Time;durP1;ratioP1;P1;durP2;ratioP2;P2;SDS_P1;SDS_P2;PMS_P1;PMS_P2;Temp;Humidity;BMP_temperature;BMP_pressure;BME280_temperature;BME280_humidity;BME280_pressure;Samples;Min_cycle;Max_cycle;Signal;HPM_P1;HPM_P2
2023/08/10 00:01:55;;;;;;;0.30;0.30;;;14.60;99.90;;;;;;5033292;28;20037;-74
2023/08/10 00:04:20;;;;;;;0.30;0.30;;;14.60;99.90;;;;;;5033352;28;20043;-74
2023/08/10 00:06:46;;;;;;;0.30;0.30;;;14.60;99.90;;;;;;5033314;28;20034;-74
2023/08/10 00:09:12;;;;;;;0.47;0.47;;;14.60;99.90;;;;;;5033403;28;20554;-74
2023/08/10 00:11:38;;;;;;;0.80;0.80;;;14.60;99.90;;;;;;5033026;28;20037;-74
2023/08/10 00:14:04;;;;;;;0.40;0.40;;;14.60;99.90;;;;;;5033201;28;20049;-74
2023/08/10 00:16:30;;;;;;;0.40;0.40;;;14.60;99.90;;;;;;5033028;28;20029;-73
2023/08/10 00:18:56;;;;;;;1.05;0.68;;;14.60;99.90;;;;;;5033457;28;20045;-74
2023/08/10 00:21:22;;;;;;;0.43;0.43;;;14.60;99.90;;;;;;5033083;28;20046;-73
2023/08/10 00:23:47;;;;;;;0.30;0.30;;;14.60;99.90;;;;;;5033161;28;20128;-74
2023/08/10 00:26:13;;;;;;;0.30;0.30;;;14.60;99.90;;;;;;5033096;28;20036;-74
2023/08/10 00:28:39;;;;;;;0.30;0.30;;;14.60;99.90;;;;;;5048696;28;20425;-73
2023/08/10 00:31:04;;;;;;;0.30;0.30;;;14.60;99.90;;;;;;5033076;28;20042;-73
2023/08/10 00:33:30;;;;;;;0.30;0.30;;;14.50;99.90;;;;;;5033082;28;20068;-73
2023/08/10 00:35:58;;;;;;;0.40;0.40;;;14.50;99.90;;;;;;5033076;28;20418;-73
2023/08/10 00:38:24;;;;;;;0.30;0.30;;;14.50;99.90;;;;;;5032905;28;20056;-74
2023/08/10 00:40:50;;;;;;;0.30;0.30;;;14.50;99.90;;;;;;5032857;28;20044;-74
2023/08/10 00:43:15;;;;;;;0.40;0.40;;;14.40;99.90;;;;;;5033283;28;20046;-74
2023/08/10 00:45:41;;;;;;;0.30;0.30;;;14.40;99.90;;;;;;5034252;28;20052;-73
2023/08/10 00:48:07;;;;;;;0.28;0.28;;;14.30;99.90;;;;;;5036406;28;20095;-73
2023/08/10 00:50:32;;;;;;;0.30;0.30;;;14.30;99.90;;;;;;5036677;28;20042;-73
2023/08/10 00:52:58;;;;;;;0.30;0.30;;;14.10;99.90;;;;;;5036916;28;20432;-73
2023/08/10 00:55:24;;;;;;;0.33;0.33;;;14.20;99.90;;;;;;5036818;28;20381;-74
2023/08/10 00:57:50;;;;;;;0.30;0.30;;;14.20;99.90;;;;;;5036487;28;20061;-74
2023/08/10 01:00:16;;;;;;;0.30;0.30;;;14.10;99.90;;;;;;5036397;28;20041;-74
2023/08/10 01:02:41;;;;;;;0.40;0.40;;;14.00;99.90;;;;;;5035999;28;20037;-74
2023/08/10 01:05:12;;;;;;;0.30;0.30;;;14.00;99.90;;;;;;5036046;28;20124;-73
2023/08/10 01:08:06;;;;;;;0.30;0.30;;;14.00;99.90;;;;;;5036832;28;20451;-75
2023/08/10 01:10:45;;;;;;;0.30;0.30;;;13.90;99.90;;;;;;5036391;28;20385;-73
2023/08/10 01:13:29;;;;;;;0.30;0.30;;;13.80;99.90;;;;;;5036131;28;20087;-73
2023/08/10 01:16:08;;;;;;;0.40;0.40;;;13.80;99.90;;;;;;5036091;28;20045;-74
2023/08/10 01:18:35;;;;;;;0.40;0.40;;;13.80;99.90;;;;;;5036208;28;20103;-73
2023/08/10 01:21:03;;;;;;;;;;;13.80;99.90;;;;;;5036583;28;20124;-73
2023/08/10 01:23:31;;;;;;;;;;;13.80;99.90;;;;;;5036294;28;20264;-73
2023/08/10 01:25:58;;;;;;;0.40;0.40;;;13.70;99.90;;;;;;5035923;28;20015;-73
2023/08/10 01:28:25;;;;;;;;;;;13.70;99.90;;;;;;5036340;28;20037;-74
2023/08/10 01:30:51;;;;;;;0.30;0.30;;;13.70;99.90;;;;;;5035940;28;19917;-74
2023/08/10 01:33:18;;;;;;;0.30;0.30;;;13.80;99.90;;;;;;5035926;28;20049;-73
2023/08/10 01:35:44;;;;;;;0.40;0.40;;;13.80;99.90;;;;;;5035765;28;20089;-74
2023/08/10 01:38:10;;;;;;;0.30;0.30;;;13.80;99.90;;;;;;5035501;28;20427;-74
2023/08/10 01:40:37;;;;;;;0.30;0.30;;;13.80;99.90;;;;;;5035650;28;20045;-74
2023/08/10 01:43:02;;;;;;;0.55;0.55;;;13.80;99.90;;;;;;5035643;28;20088;-74
2023/08/10 01:45:29;;;;;;;0.40;0.40;;;13.80;99.90;;;;;;5035611;28;20038;-74
2023/08/10 01:48:00;;;;;;;0.32;0.32;;;13.90;99.90;;;;;;5036023;28;20052;-74
2023/08/10 01:50:29;;;;;;;0.38;0.38;;;13.90;99.90;;;;;;5035678;28;20033;-75
2023/08/10 01:52:58;;;;;;;0.30;0.30;;;13.90;99.90;;;;;;5035294;28;20462;-73
2023/08/10 01:55:24;;;;;;;0.40;0.40;;;14.00;99.90;;;;;;5035408;28;20087;-74
2023/08/10 01:57:51;;;;;;;0.30;0.30;;;14.00;99.90;;;;;;5034435;28;20030;-74
2023/08/10 02:00:17;;;;;;;0.30;0.30;;;14.00;99.90;;;;;;5035320;28;20084;-73
2023/08/10 02:02:43;;;;;;;0.30;0.30;;;14.00;99.90;;;;;;5035283;28;20525;-73
2023/08/10 02:05:13;;;;;;;0.30;0.30;;;14.00;99.90;;;;;;5035263;28;20045;-73
2023/08/10 02:07:41;;;;;;;0.40;0.40;;;14.00;99.90;;;;;;5051321;28;20381;-74
2023/08/10 02:10:07;;;;;;;0.30;0.30;;;14.00;99.90;;;;;;5035527;28;20041;-74
2023/08/10 02:12:33;;;;;;;0.30;0.30;;;14.10;99.90;;;;;;5035331;28;20167;-74
2023/08/10 02:14:59;;;;;;;0.30;0.30;;;14.00;99.90;;;;;;5035066;28;20513;-73
2023/08/10 02:17:29;;;;;;;0.30;0.30;;;14.10;99.90;;;;;;5035075;28;20447;-74
2023/08/10 02:19:56;;;;;;;0.30;0.30;;;14.10;99.90;;;;;;5034714;28;20296;-73
2023/08/10 02:22:22;;;;;;;0.30;0.30;;;14.10;99.90;;;;;;5034831;28;20087;-73
2023/08/10 02:24:48;;;;;;;0.30;0.30;;;14.10;99.90;;;;;;5034863;28;20048;-74
2023/08/10 02:27:13;;;;;;;0.30;0.30;;;14.10;99.90;;;;;;5034838;28;20045;-75
2023/08/10 02:29:39;;;;;;;0.40;0.40;;;14.10;99.90;;;;;;5034627;28;20080;-75
2023/08/10 02:32:05;;;;;;;0.30;0.30;;;14.10;99.90;;;;;;5034750;28;20497;-73
2023/08/10 02:34:30;;;;;;;0.30;0.30;;;14.10;99.90;;;;;;5034692;28;20049;-73
2023/08/10 02:36:56;;;;;;;0.40;0.40;;;14.10;99.90;;;;;;5035087;28;20044;-74
2023/08/10 02:39:21;;;;;;;0.30;0.30;;;14.10;99.90;;;;;;5034628;28;20125;-74
2023/08/10 02:41:47;;;;;;;0.38;0.38;;;14.00;99.90;;;;;;5034808;28;20033;-74
2023/08/10 02:44:13;;;;;;;0.33;0.33;;;14.00;99.90;;;;;;5034538;28;20099;-73
2023/08/10 02:46:38;;;;;;;0.60;0.60;;;14.00;99.90;;;;;;5034376;28;20358;-74
2023/08/10 02:49:04;;;;;;;0.30;0.30;;;13.90;99.90;;;;;;5034347;28;20124;-74
2023/08/10 02:51:30;;;;;;;0.40;0.40;;;13.90;99.90;;;;;;5034091;28;20037;-74
2023/08/10 02:53:55;;;;;;;0.40;0.40;;;13.80;99.90;;;;;;5034275;28;20041;-74
2023/08/10 02:56:21;;;;;;;0.30;0.30;;;13.80;99.90;;;;;;5034303;28;20041;-74
2023/08/10 02:58:46;;;;;;;0.30;0.30;;;13.80;99.90;;;;;;5034368;28;20369;-75
2023/08/10 03:01:12;;;;;;;0.30;0.30;;;13.70;99.90;;;;;;5034315;28;20040;-74
2023/08/10 03:03:38;;;;;;;0.83;0.77;;;13.70;99.90;;;;;;5034181;28;20508;-74
2023/08/10 03:06:04;;;;;;;0.30;0.30;;;13.60;99.90;;;;;;5034238;28;20038;-73
2023/08/10 03:08:30;;;;;;;0.50;0.50;;;13.60;99.90;;;;;;5033964;28;20045;-74
2023/08/10 03:10:56;;;;;;;0.40;0.40;;;13.60;99.90;;;;;;5034069;28;20048;-73
2023/08/10 03:13:21;;;;;;;0.40;0.40;;;13.50;99.90;;;;;;5034011;28;20033;-75
2023/08/10 03:15:47;;;;;;;0.40;0.40;;;13.50;99.90;;;;;;5033908;28;20048;-73
2023/08/10 03:18:12;;;;;;;0.32;0.32;;;13.50;99.90;;;;;;5033830;28;20042;-74
2023/08/10 03:20:38;;;;;;;0.30;0.30;;;13.50;99.90;;;;;;5033757;28;20469;-73
2023/08/10 03:23:04;;;;;;;0.30;0.30;;;13.40;99.90;;;;;;5034254;28;20044;-73
2023/08/10 03:25:29;;;;;;;0.30;0.30;;;13.50;99.90;;;;;;5033767;28;20041;-73
2023/08/10 03:27:55;;;;;;;0.40;0.40;;;13.50;99.90;;;;;;5033587;28;20133;-73
2023/08/10 03:30:21;;;;;;;0.40;0.40;;;13.50;99.90;;;;;;5033746;28;20043;-74
2023/08/10 03:32:46;;;;;;;0.40;0.40;;;13.50;99.90;;;;;;5033692;28;20041;-74
2023/08/10 03:35:13;;;;;;;0.30;0.30;;;13.50;99.90;;;;;;5033547;28;20167;-74
2023/08/10 03:37:38;;;;;;;0.38;0.38;;;13.50;99.90;;;;;;5034044;28;20076;-74
2023/08/10 03:40:05;;;;;;;0.40;0.40;;;13.50;99.90;;;;;;5033546;28;20142;-74
2023/08/10 03:42:30;;;;;;;0.40;0.40;;;13.50;99.90;;;;;;5033563;28;20042;-73
2023/08/10 03:44:56;;;;;;;0.37;0.37;;;13.50;99.90;;;;;;5033379;28;20034;-73
2023/08/10 03:47:22;;;;;;;0.40;0.40;;;13.60;99.90;;;;;;5048983;28;20073;-74
2023/08/10 03:49:48;;;;;;;0.30;0.30;;;13.50;99.90;;;;;;5033475;28;20045;-73
2023/08/10 03:52:14;;;;;;;0.30;0.30;;;13.50;99.90;;;;;;5033615;28;20037;-73
2023/08/10 03:54:40;;;;;;;0.50;0.50;;;13.60;99.90;;;;;;5033187;28;20048;-73
2023/08/10 03:57:05;;;;;;;0.30;0.30;;;13.60;99.90;;;;;;5033525;28;20049;-74
2023/08/10 03:59:31;;;;;;;0.40;0.40;;;13.60;99.90;;;;;;5033276;28;20452;-74
2023/08/10 04:01:58;;;;;;;0.40;0.40;;;13.70;99.90;;;;;;5033332;28;20125;-73
2023/08/10 04:04:23;;;;;;;0.38;0.38;;;13.60;99.90;;;;;;5033271;28;20492;-74
2023/08/10 04:06:49;;;;;;;0.40;0.40;;;13.60;99.90;;;;;;5033534;28;20037;-73
2023/08/10 04:09:15;;;;;;;0.40;0.40;;;13.60;99.90;;;;;;5033268;28;20037;-75
2023/08/10 04:11:40;;;;;;;0.40;0.40;;;13.60;99.90;;;;;;5033202;28;20046;-73
2023/08/10 04:14:06;;;;;;;0.30;0.30;;;13.70;99.90;;;;;;5033234;28;20067;-73
2023/08/10 04:16:31;;;;;;;0.40;0.40;;;13.60;99.90;;;;;;5032992;28;20049;-74
2023/08/10 04:18:57;;;;;;;0.30;0.30;;;13.70;99.90;;;;;;5033026;28;20477;-74
2023/08/10 04:21:23;;;;;;;0.40;0.40;;;13.70;99.90;;;;;;5036143;28;20038;-74
2023/08/10 04:23:49;;;;;;;0.30;0.30;;;13.80;99.90;;;;;;5037099;28;20087;-73
2023/08/10 04:26:15;;;;;;;0.30;0.30;;;13.70;99.90;;;;;;5037218;28;20077;-74
2023/08/10 04:28:41;;;;;;;0.40;0.40;;;13.80;99.90;;;;;;5037048;28;20037;-75
2023/08/10 04:31:08;;;;;;;0.30;0.30;;;13.80;99.90;;;;;;5037193;28;20067;-74
2023/08/10 04:33:34;;;;;;;0.30;0.30;;;13.70;99.90;;;;;;5037020;28;20115;-74
2023/08/10 04:35:59;;;;;;;0.30;0.30;;;13.70;99.90;;;;;;5036884;28;20100;-75
2023/08/10 04:38:25;;;;;;;0.30;0.30;;;13.80;99.90;;;;;;5036896;28;20033;-78
2023/08/10 04:40:50;;;;;;;5.27;0.70;;;13.80;99.90;;;;;;5036593;28;20114;-74
2023/08/10 04:43:16;;;;;;;0.40;0.40;;;13.80;99.90;;;;;;5036723;28;20042;-73
2023/08/10 04:45:42;;;;;;;0.30;0.30;;;13.80;99.90;;;;;;5036842;28;20171;-74
2023/08/10 04:48:10;;;;;;;0.30;0.30;;;13.90;99.90;;;;;;5036608;28;20049;-74
2023/08/10 04:50:35;;;;;;;0.30;0.30;;;13.90;99.90;;;;;;5036212;28;20048;-74
2023/08/10 04:53:02;;;;;;;0.30;0.30;;;13.90;99.90;;;;;;5036607;28;20037;-73
2023/08/10 04:55:28;;;;;;;0.38;0.38;;;14.00;99.90;;;;;;5036537;28;20384;-74
2023/08/10 04:57:54;;;;;;;0.40;0.40;;;14.00;99.90;;;;;;5036410;28;20037;-74
2023/08/10 05:00:20;;;;;;;0.50;0.50;;;14.00;99.90;;;;;;5036487;28;20029;-74
2023/08/10 05:02:45;;;;;;;0.40;0.40;;;14.00;99.90;;;;;;5036504;28;20436;-75
2023/08/10 05:05:11;;;;;;;0.30;0.30;;;14.10;99.90;;;;;;5036702;28;20037;-75
2023/08/10 05:07:37;;;;;;;0.30;0.30;;;14.10;99.90;;;;;;5036342;28;20483;-74
2023/08/10 05:10:08;;;;;;;0.30;0.30;;;14.10;99.90;;;;;;5036218;28;20076;-73
2023/08/10 05:12:36;;;;;;;0.30;0.30;;;14.20;99.90;;;;;;5036716;28;20047;-73
2023/08/10 05:15:01;;;;;;;0.40;0.40;;;14.20;99.90;;;;;;5036218;28;20037;-75
2023/08/10 05:17:27;;;;;;;0.30;0.30;;;14.20;99.90;;;;;;5036367;28;20420;-76
2023/08/10 05:19:53;;;;;;;0.40;0.40;;;14.30;99.90;;;;;;5035999;28;20121;-75
2023/08/10 05:22:19;;;;;;;0.60;0.60;;;14.30;99.90;;;;;;5035995;28;20496;-74
2023/08/10 05:24:45;;;;;;;0.40;0.40;;;14.40;99.90;;;;;;5035976;28;20053;-74
2023/08/10 05:27:11;;;;;;;0.30;0.30;;;14.40;99.90;;;;;;5035708;28;20041;-73
2023/08/10 05:29:36;;;;;;;0.30;0.30;;;14.50;99.90;;;;;;5035947;28;20048;-74
2023/08/10 05:32:02;;;;;;;0.40;0.40;;;14.50;99.90;;;;;;5034631;28;20097;-74
2023/08/10 05:34:28;;;;;;;0.40;0.40;;;14.50;99.90;;;;;;5035753;28;20490;-73
2023/08/10 05:36:53;;;;;;;0.30;0.30;;;14.60;99.90;;;;;;5035852;28;20037;-74
2023/08/10 05:39:19;;;;;;;0.30;0.30;;;14.60;99.90;;;;;;5036108;28;20077;-76
2023/08/10 05:41:45;;;;;;;0.40;0.40;;;14.60;99.90;;;;;;5035840;28;20417;-75
2023/08/10 05:44:12;;;;;;;0.37;0.37;;;14.70;99.90;;;;;;5035720;28;20048;-76
2023/08/10 05:46:38;;;;;;;;;;;14.70;99.90;;;;;;5035848;28;20041;-75
2023/08/10 05:49:04;;;;;;;0.30;0.30;;;14.80;99.90;;;;;;5035501;28;19923;-75
2023/08/10 05:51:29;;;;;;;0.50;0.50;;;14.90;99.90;;;;;;5035547;28;20037;-76
2023/08/10 05:53:55;;;;;;;0.50;0.50;;;15.00;99.90;;;;;;5035498;28;20044;-74
2023/08/10 05:56:21;;;;;;;0.40;0.40;;;15.00;99.90;;;;;;5035345;28;20458;-71
2023/08/10 05:58:46;;;;;;;0.40;0.40;;;15.20;99.90;;;;;;5035051;28;20065;-73
2023/08/10 06:01:13;;;;;;;0.30;0.30;;;15.20;99.90;;;;;;5049301;28;20029;-72
2023/08/10 06:03:39;;;;;;;9.25;0.93;;;15.30;99.90;;;;;;5034882;28;20045;-71
2023/08/10 06:06:08;;;;;;;0.40;0.40;;;15.40;99.90;;;;;;5035256;28;20041;-71
2023/08/10 06:08:33;;;;;;;0.40;0.40;;;15.50;99.90;;;;;;5035118;28;20045;-71
2023/08/10 06:11:00;;;;;;;0.53;0.53;;;15.50;99.90;;;;;;5034843;28;20037;-71
2023/08/10 06:13:26;;;;;;;0.30;0.30;;;15.60;99.90;;;;;;5033830;28;20037;-75
2023/08/10 06:15:52;;;;;;;0.38;0.38;;;15.60;99.90;;;;;;5034858;28;20046;-73
2023/08/10 06:18:17;;;;;;;0.40;0.40;;;15.70;99.90;;;;;;5034139;28;20076;-74
2023/08/10 06:20:45;;;;;;;0.40;0.40;;;15.80;99.90;;;;;;5034799;28;20081;-74
2023/08/10 06:23:12;;;;;;;0.38;0.38;;;15.80;99.90;;;;;;5034675;28;20041;-72
2023/08/10 06:25:37;;;;;;;0.30;0.30;;;15.90;99.90;;;;;;5034565;28;20128;-72
2023/08/10 06:28:03;;;;;;;0.40;0.40;;;15.90;99.90;;;;;;5034590;28;20453;-73
2023/08/10 06:30:29;;;;;;;0.40;0.40;;;15.90;99.90;;;;;;5034694;28;20041;-71
2023/08/10 06:32:55;;;;;;;1.03;0.63;;;16.00;99.90;;;;;;5034081;28;20034;-73
2023/08/10 06:35:21;;;;;;;0.30;0.30;;;16.10;99.90;;;;;;5034731;28;20115;-72
2023/08/10 06:37:49;;;;;;;;;;;16.20;99.90;;;;;;5034924;28;20141;-72
2023/08/10 06:40:15;;;;;;;0.30;0.30;;;16.20;99.90;;;;;;5034441;28;19971;-72
2023/08/10 06:42:42;;;;;;;0.30;0.30;;;16.20;99.90;;;;;;5034159;28;20041;-73
2023/08/10 06:45:08;;;;;;;0.45;0.45;;;16.30;99.90;;;;;;5033904;28;20087;-73
2023/08/10 06:47:37;;;;;;;0.85;0.82;;;16.40;99.90;;;;;;5033760;28;20462;-71
2023/08/10 06:50:04;;;;;;;0.40;0.40;;;16.50;99.90;;;;;;5034566;28;20060;-72
2023/08/10 06:52:30;;;;;;;0.82;0.68;;;16.60;99.90;;;;;;5034044;28;20053;-73
2023/08/10 06:54:55;;;;;;;0.28;0.28;;;16.50;99.90;;;;;;5034034;28;20033;-74
2023/08/10 06:57:21;;;;;;;0.33;0.33;;;16.50;99.90;;;;;;5033832;28;20433;-72
2023/08/10 06:59:47;;;;;;;0.50;0.50;;;16.60;99.90;;;;;;5033806;28;20037;-73
2023/08/10 07:02:18;;;;;;;0.30;0.30;;;16.60;99.90;;;;;;5033405;28;20171;-72
2023/08/10 07:04:45;;;;;;;0.30;0.30;;;16.70;99.90;;;;;;5033977;28;20091;-72
2023/08/10 07:07:12;;;;;;;;;;;16.80;99.90;;;;;;5034190;28;20042;-72
2023/08/10 07:09:37;;;;;;;0.30;0.30;;;17.00;99.90;;;;;;5033862;28;19983;-72
2023/08/10 07:12:04;;;;;;;0.30;0.30;;;17.10;99.90;;;;;;5033655;28;20494;-73
2023/08/10 07:14:29;;;;;;;0.30;0.30;;;17.30;99.90;;;;;;5033741;28;20178;-72
2023/08/10 07:16:55;;;;;;;0.27;0.27;;;17.40;99.90;;;;;;5032807;28;20097;-73
2023/08/10 07:19:21;;;;;;;0.40;0.40;;;17.50;99.90;;;;;;5033546;28;20056;-72
2023/08/10 07:21:47;;;;;;;0.40;0.40;;;17.50;99.90;;;;;;5033604;28;20120;-73
2023/08/10 07:24:14;;;;;;;0.47;0.40;;;17.60;99.90;;;;;;5033346;28;20037;-72
2023/08/10 07:26:39;;;;;;;0.30;0.30;;;17.60;99.90;;;;;;5033603;28;20049;-73
2023/08/10 07:29:05;;;;;;;0.27;0.23;;;17.70;99.90;;;;;;5033553;28;20049;-69
2023/08/10 07:31:34;;;;;;;0.30;0.30;;;17.80;99.90;;;;;;5033326;28;20397;-70
2023/08/10 07:34:00;;;;;;;0.20;0.20;;;18.00;99.90;;;;;;5033472;28;20099;-71
2023/08/10 07:36:26;;;;;;;0.30;0.30;;;18.10;99.90;;;;;;5033815;28;20045;-71
2023/08/10 07:38:55;;;;;;;0.30;0.30;;;18.20;99.90;;;;;;5033447;28;20523;-70
2023/08/10 07:41:20;;;;;;;0.30;0.30;;;18.30;99.90;;;;;;5033427;28;20045;-70
2023/08/10 07:43:46;;;;;;;0.30;0.30;;;18.30;99.90;;;;;;5033462;28;20041;-70
2023/08/10 07:46:12;;;;;;;0.23;0.23;;;18.30;99.90;;;;;;5048443;28;20090;-70
2023/08/10 07:48:37;;;;;;;0.20;0.20;;;18.40;99.90;;;;;;5033289;28;20417;-70
2023/08/10 07:51:03;;;;;;;0.30;0.30;;;18.50;99.90;;;;;;5033275;28;20034;-69
2023/08/10 07:53:29;;;;;;;0.30;0.30;;;18.50;99.90;;;;;;5033092;28;20452;-72
2023/08/10 07:55:55;;;;;;;0.65;0.63;;;18.60;99.90;;;;;;5032189;28;20489;-70
2023/08/10 07:58:21;;;;;;;0.30;0.30;;;18.60;99.90;;;;;;5033140;28;20041;-69
2023/08/10 08:00:47;;;;;;;0.30;0.30;;;18.80;99.90;;;;;;5032583;28;20091;-76
2023/08/10 08:03:13;;;;;;;0.30;0.30;;;18.90;99.90;;;;;;5033213;28;20125;-71
2023/08/10 08:05:40;;;;;;;0.40;0.40;;;19.00;99.90;;;;;;5033149;28;20056;-71
2023/08/10 08:08:06;;;;;;;0.30;0.30;;;19.10;99.90;;;;;;5033043;28;20045;-72
2023/08/10 08:10:32;;;;;;;0.30;0.30;;;19.20;99.90;;;;;;5033125;28;20075;-70
2023/08/10 08:12:59;;;;;;;0.50;0.50;;;19.30;99.90;;;;;;5032864;28;20037;-77
2023/08/10 08:15:25;;;;;;;0.30;0.30;;;19.40;99.90;;;;;;5032640;28;20045;-71
2023/08/10 08:18:28;;;;;;;0.40;0.40;;;19.50;99.90;;;;;;5033020;28;20054;-70
2023/08/10 08:20:54;;;;;;;0.30;0.30;;;19.50;99.90;;;;;;5032670;28;20426;-71
2023/08/10 08:23:19;;;;;;;0.30;0.30;;;19.40;99.90;;;;;;5033057;28;20127;-73
2023/08/10 08:25:45;;;;;;;0.30;0.30;;;19.40;99.90;;;;;;5046885;28;20099;-72
2023/08/10 08:28:10;;;;;;;0.30;0.30;;;19.50;99.90;;;;;;5052836;28;20048;-70
2023/08/10 08:30:36;;;;;;;0.50;0.50;;;19.60;99.90;;;;;;5053769;28;20067;-70
2023/08/10 08:33:02;;;;;;;0.30;0.30;;;19.80;99.90;;;;;;5052746;28;20492;-70
2023/08/10 08:35:27;;;;;;;0.20;0.20;;;19.90;99.90;;;;;;5052613;28;20048;-69
2023/08/10 08:37:53;;;;;;;0.30;0.30;;;19.90;99.90;;;;;;5052810;28;20033;-70
2023/08/10 08:40:20;;;;;;;0.30;0.30;;;20.00;99.90;;;;;;5052613;28;20106;-70
2023/08/10 08:42:48;;;;;;;0.38;0.30;;;20.00;99.90;;;;;;5052674;28;20087;-72
2023/08/10 08:45:15;;;;;;;0.30;0.30;;;20.00;99.90;;;;;;5052529;28;20040;-70
2023/08/10 08:47:45;;;;;;;0.30;0.30;;;20.00;99.90;;;;;;5052808;28;20041;-70
2023/08/10 08:50:11;;;;;;;0.30;0.30;;;19.90;99.90;;;;;;5052695;28;20036;-70
2023/08/10 08:52:39;;;;;;;0.47;0.47;;;19.90;99.90;;;;;;5052784;28;20060;-70
2023/08/10 08:55:07;;;;;;;0.20;0.20;;;19.90;99.90;;;;;;5052622;28;20048;-71
2023/08/10 08:57:33;;;;;;;0.30;0.30;;;19.90;99.90;;;;;;5052354;28;20037;-71
2023/08/10 08:59:59;;;;;;;0.40;0.40;;;19.90;99.90;;;;;;5052440;28;20524;-70
2023/08/10 09:02:25;;;;;;;0.30;0.30;;;19.90;99.90;;;;;;5052383;28;20133;-71
2023/08/10 09:04:54;;;;;;;0.22;0.22;;;19.90;99.90;;;;;;5052269;28;20063;-69
2023/08/10 09:07:20;;;;;;;0.35;0.35;;;19.80;99.90;;;;;;5054772;28;20385;-71
2023/08/10 09:09:46;;;;;;;0.97;0.47;;;19.70;99.90;;;;;;5055923;28;20041;-69
2023/08/10 09:12:35;;;;;;;0.30;0.30;;;19.60;99.90;;;;;;5055702;28;20045;-70
2023/08/10 09:15:11;;;;;;;0.30;0.30;;;19.70;99.90;;;;;;5056118;28;20040;-70
2023/08/10 09:17:48;;;;;;;0.22;0.22;;;19.70;99.90;;;;;;5055959;28;20045;-74
2023/08/10 09:20:22;;;;;;;0.30;0.30;;;19.70;99.90;;;;;;5055746;28;20493;-72
2023/08/10 09:22:51;;;;;;;0.75;0.43;;;19.60;99.90;;;;;;5056582;28;20370;-73
2023/08/10 09:25:17;;;;;;;0.20;0.20;;;19.70;99.90;;;;;;5055979;28;20106;-75
2023/08/10 09:27:45;;;;;;;0.30;0.30;;;19.70;99.90;;;;;;5055908;28;20037;-71
2023/08/10 09:30:10;;;;;;;0.30;0.30;;;19.60;99.90;;;;;;5056005;28;20045;-75
2023/08/10 09:32:38;;;;;;;0.20;0.20;;;19.50;99.90;;;;;;5055471;28;20489;-73
2023/08/10 09:35:05;;;;;;;0.30;0.30;;;19.40;99.90;;;;;;5055395;28;20045;-72
2023/08/10 09:37:31;;;;;;;0.30;0.30;;;19.40;99.90;;;;;;5056059;28;20041;-73
2023/08/10 09:40:00;;;;;;;0.77;0.57;;;19.40;99.90;;;;;;5055555;28;20122;-72
2023/08/10 09:42:30;;;;;;;0.30;0.30;;;19.40;99.90;;;;;;5055769;28;20275;-72
2023/08/10 09:44:58;;;;;;;0.30;0.30;;;19.40;99.90;;;;;;5055441;28;20052;-73
2023/08/10 09:47:24;;;;;;;0.30;0.30;;;19.40;99.90;;;;;;5055448;28;20087;-74
2023/08/10 09:50:05;;;;;;;0.20;0.20;;;19.40;99.90;;;;;;5056008;28;20377;-72
2023/08/10 09:52:33;;;;;;;0.40;0.30;;;19.30;99.90;;;;;;5055505;28;20053;-74
2023/08/10 09:54:59;;;;;;;0.30;0.30;;;19.40;99.90;;;;;;5055519;28;20049;-74
2023/08/10 09:57:25;;;;;;;0.30;0.30;;;19.40;99.90;;;;;;5055449;28;20033;-73
2023/08/10 09:59:51;;;;;;;0.40;0.40;;;19.40;99.90;;;;;;5054486;28;20450;-73
2023/08/10 10:02:20;;;;;;;0.73;0.73;;;19.50;99.90;;;;;;5054248;28;20076;-73
2023/08/10 10:04:46;;;;;;;0.38;0.38;;;19.40;99.90;;;;;;5053895;28;20048;-73
2023/08/10 10:07:12;;;;;;;0.20;0.20;;;19.50;99.90;;;;;;5054819;28;20037;-73
2023/08/10 10:09:45;;;;;;;0.30;0.30;;;19.50;99.90;;;;;;5054512;28;20060;-72
2023/08/10 10:12:13;;;;;;;0.30;0.30;;;19.60;99.90;;;;;;5054668;28;20123;-76
2023/08/10 10:14:41;;;;;;;0.20;0.20;;;19.50;99.90;;;;;;5054665;28;20037;-75
2023/08/10 10:17:14;;;;;;;0.30;0.30;;;19.60;99.90;;;;;;5054855;28;20052;-74
2023/08/10 10:19:40;;;;;;;0.30;0.30;;;19.70;99.90;;;;;;5054190;28;20397;-74
2023/08/10 10:22:06;;;;;;;;;;;19.70;99.90;;;;;;5055224;28;20465;-75
2023/08/10 10:24:33;;;;;;;0.28;0.28;;;19.70;99.90;;;;;;5054893;28;19917;-77
2023/08/10 10:27:05;;;;;;;0.20;0.20;;;19.70;99.90;;;;;;5054837;28;20041;-74
2023/08/10 10:29:51;;;;;;;1.27;0.40;;;19.70;99.90;;;;;;5055427;28;20120;-78
2023/08/10 10:32:19;;;;;;;0.30;0.30;;;19.70;99.90;;;;;;5054882;28;20041;-74
2023/08/10 10:34:46;;;;;;;0.30;0.30;;;19.70;99.90;;;;;;5054689;28;20083;-74
2023/08/10 10:37:12;;;;;;;;;;;19.60;99.90;;;;;;5055072;28;20045;-76
2023/08/10 10:39:40;;;;;;;0.20;0.20;;;19.60;99.90;;;;;;5054585;28;20087;-75
2023/08/10 10:42:05;;;;;;;0.30;0.30;;;19.60;99.90;;;;;;5055044;28;20040;-75
2023/08/10 10:45:08;;;;;;;0.27;0.27;;;19.50;99.90;;;;;;5055091;28;20381;-74
2023/08/10 10:47:37;;;;;;;0.30;0.30;;;19.50;99.90;;;;;;5054388;28;20083;-75
2023/08/10 10:50:18;;;;;;;0.30;0.30;;;19.50;99.90;;;;;;5054342;28;20036;-75
2023/08/10 10:52:54;;;;;;;0.30;0.30;;;19.40;99.90;;;;;;5054753;28;20106;-74
2023/08/10 10:55:41;;;;;;;0.30;0.30;;;19.40;99.90;;;;;;5054314;28;20425;-71
2023/08/10 10:58:09;;;;;;;0.20;0.20;;;19.40;99.90;;;;;;5054230;28;20059;-72
2023/08/10 11:00:36;;;;;;;0.30;0.30;;;19.40;99.90;;;;;;5053584;28;20076;-71
2023/08/10 11:03:06;;;;;;;0.30;0.30;;;19.40;99.90;;;;;;5054206;28;20040;-73
2023/08/10 11:05:33;;;;;;;0.22;0.22;;;19.30;99.90;;;;;;5054485;28;20076;-73
2023/08/10 11:08:06;;;;;;;0.30;0.30;;;19.30;99.90;;;;;;5054136;28;20049;-75
2023/08/10 11:10:35;;;;;;;0.20;0.20;;;19.30;99.90;;;;;;5054140;28;20049;-74
2023/08/10 11:13:11;;;;;;;0.40;0.40;;;19.30;99.90;;;;;;5054017;28;20114;-73
2023/08/10 11:15:37;;;;;;;0.32;0.32;;;19.20;99.90;;;;;;5054601;28;20051;-73
2023/08/10 11:18:12;;;;;;;0.30;0.30;;;19.20;99.90;;;;;;5054065;28;20186;-73
2023/08/10 11:20:46;;;;;;;0.20;0.20;;;19.20;99.90;;;;;;5053789;28;20045;-75
2023/08/10 11:23:12;;;;;;;0.30;0.30;;;19.10;99.90;;;;;;5053802;28;20037;-75
2023/08/10 11:25:51;;;;;;;0.30;0.30;;;19.20;99.90;;;;;;5053764;28;20051;-71
2023/08/10 11:28:19;;;;;;;0.35;0.35;;;19.20;99.90;;;;;;5053822;28;20465;-74
2023/08/10 11:30:45;;;;;;;0.20;0.20;;;19.30;99.90;;;;;;5053636;28;20122;-73
2023/08/10 11:33:11;;;;;;;0.73;0.28;;;19.30;99.90;;;;;;5053742;28;20071;-75
2023/08/10 11:35:37;;;;;;;0.80;0.63;;;19.30;99.90;;;;;;5054202;28;20048;-72
2023/08/10 11:38:05;;;;;;;0.27;0.27;;;19.40;99.90;;;;;;5053623;28;20470;-75
2023/08/10 11:40:30;;;;;;;0.28;0.28;;;19.40;99.90;;;;;;5054012;28;20041;-74
2023/08/10 11:43:03;;;;;;;0.20;0.20;;;19.40;99.90;;;;;;5053612;28;20039;-73
2023/08/10 11:45:29;;;;;;;0.20;0.20;;;19.50;99.90;;;;;;5053601;28;20428;-71
2023/08/10 11:47:57;;;;;;;0.20;0.20;;;19.50;99.90;;;;;;5053497;28;20094;-74
2023/08/10 11:50:25;;;;;;;0.32;0.30;;;19.60;99.90;;;;;;5053438;28;20047;-72
2023/08/10 11:52:55;;;;;;;1.50;0.57;;;19.70;99.90;;;;;;5053419;28;20041;-73
2023/08/10 11:55:21;;;;;;;0.22;0.22;;;19.70;99.90;;;;;;5053486;28;20029;-75
2023/08/10 11:57:50;;;;;;;0.30;0.30;;;19.80;99.90;;;;;;5053646;28;20033;-73
2023/08/10 12:00:30;;;;;;;0.20;0.20;;;19.80;99.90;;;;;;5053382;28;20407;-75
2023/08/10 12:03:12;;;;;;;0.30;0.30;;;19.90;99.90;;;;;;5053321;28;20045;-73
2023/08/10 12:05:59;;;;;;;0.30;0.30;;;19.90;99.90;;;;;;5053547;28;20094;-74
2023/08/10 12:08:29;;;;;;;0.20;0.20;;;20.00;99.90;;;;;;5053294;28;20120;-73
2023/08/10 12:11:06;;;;;;;0.32;0.32;;;20.10;99.90;;;;;;5053274;28;20408;-71
2023/08/10 12:13:54;;;;;;;0.40;0.40;;;20.20;99.90;;;;;;5053241;28;20369;-74
2023/08/10 12:16:20;;;;;;;0.30;0.30;;;20.20;99.90;;;;;;5053277;28;20040;-73
2023/08/10 12:18:47;;;;;;;0.30;0.30;;;20.30;99.90;;;;;;5053355;28;20492;-75
2023/08/10 12:21:13;;;;;;;0.20;0.20;;;20.30;99.90;;;;;;5053146;28;20091;-73
2023/08/10 12:23:38;;;;;;;0.30;0.30;;;20.30;99.90;;;;;;5053232;28;20051;-73
2023/08/10 12:26:04;;;;;;;0.20;0.20;;;20.40;99.90;;;;;;5053187;28;20444;-74
2023/08/10 12:28:30;;;;;;;0.20;0.20;;;20.50;99.90;;;;;;5053189;28;20045;-73
2023/08/10 12:30:56;;;;;;;0.30;0.30;;;20.50;99.90;;;;;;5053384;28;20461;-74
2023/08/10 12:33:23;;;;;;;0.20;0.20;;;20.60;99.90;;;;;;5053115;28;20033;-75
2023/08/10 12:35:49;;;;;;;0.30;0.30;;;20.50;99.90;;;;;;5053354;28;20090;-72
2023/08/10 12:38:17;;;;;;;0.30;0.30;;;20.50;99.90;;;;;;5053095;28;20167;-74
2023/08/10 12:40:43;;;;;;;0.20;0.20;;;20.60;99.90;;;;;;5052961;28;20369;-73
2023/08/10 12:43:08;;;;;;;0.30;0.30;;;20.60;99.90;;;;;;5056662;28;20041;-71
2023/08/10 12:45:34;;;;;;;0.30;0.30;;;20.60;99.90;;;;;;5057380;28;20044;-73
2023/08/10 12:48:00;;;;;;;0.20;0.20;;;20.60;99.90;;;;;;5056829;28;20044;-73
2023/08/10 12:50:26;;;;;;;0.30;0.30;;;20.60;99.90;;;;;;5056754;28;20179;-72